createdAt,value
2022-08-22T00:02:55.558Z,20.60
2022-08-22T00:03:00.571Z,22.12
2022-08-22T00:03:17.477Z,20.38
2022-08-22T00:09:32.210Z,20.34
2022-08-22T00:11:02.775Z,20.40
2022-08-22T00:14:07.017Z,20.50
2022-08-22T00:26:23.868Z,20.42
2022-08-22T00:29:14.253Z,20.37
2022-08-22T00:33:26.778Z,20.38
2022-08-22T00:36:32.940Z,20.31
2022-08-22T00:39:31.312Z,20.24
2022-08-22T00:42:31.226Z,20.12
2022-08-22T00:47:19.177Z,20.02
2022-08-22T00:48:49.680Z,19.98
2022-08-22T00:51:32.301Z,20.16
2022-08-22T00:54:38.785Z,20.15
2022-08-22T00:55:55.930Z,19.99
2022-08-22T00:59:17.951Z,19.98
2022-08-22T01:14:52.144Z,19.88
2022-08-22T01:17:46.605Z,19.86
2022-08-22T01:19:16.303Z,19.73
2022-08-22T01:20:43.241Z,19.75
2022-08-22T01:22:14.337Z,19.74
2022-08-22T01:25:28.837Z,19.78
2022-08-22T01:28:17.025Z,19.71
2022-08-22T01:31:37.779Z,19.66
2022-08-22T01:33:21.615Z,19.65
2022-08-22T01:34:56.844Z,19.59
2022-08-22T01:37:54.590Z,19.62
2022-08-22T01:39:27.492Z,19.59
2022-08-22T01:42:51.997Z,19.77
2022-08-22T01:45:51.802Z,19.62
2022-08-22T01:48:37.439Z,19.63
2022-08-22T01:49:56.188Z,19.57
2022-08-22T01:52:48.768Z,19.54
2022-08-22T01:54:15.603Z,19.42
2022-08-22T01:55:29.408Z,19.41
2022-08-22T01:58:05.040Z,19.56
2022-08-22T02:01:13.680Z,19.58
2022-08-22T02:04:05.940Z,19.67
2022-08-22T02:05:28.511Z,19.45
2022-08-22T02:08:25.012Z,19.48
2022-08-22T02:11:15.610Z,19.51
2022-08-22T02:12:59.297Z,19.33
2022-08-22T02:14:21.455Z,19.34
2022-08-22T02:17:35.201Z,19.44
2022-08-22T02:20:28.973Z,19.44
2022-08-22T02:22:17.929Z,19.38
2022-08-22T02:25:10.926Z,19.41
2022-08-22T02:28:08.142Z,19.51
2022-08-22T02:30:53.261Z,19.51
2022-08-22T02:33:36.738Z,19.45
2022-08-22T02:34:56.716Z,19.44
2022-08-22T02:38:03.225Z,19.53
2022-08-22T02:40:54.891Z,19.54
2022-08-22T02:44:04.037Z,19.41
2022-08-22T02:45:20.529Z,19.46
2022-08-22T02:48:18.868Z,19.59
2022-08-22T02:49:43.939Z,19.53
2022-08-22T02:52:18.633Z,19.61
2022-08-22T03:04:25.863Z,19.62
2022-08-22T03:06:01.370Z,19.47
2022-08-22T03:08:50.914Z,19.55
2022-08-22T03:10:03.279Z,19.46
2022-08-22T03:14:28.711Z,19.57
2022-08-22T03:17:21.407Z,19.66
2022-08-22T03:20:04.557Z,19.76
2022-08-22T03:24:23.443Z,19.94
2022-08-22T03:26:00.339Z,19.82
2022-08-22T03:28:59.176Z,20.05
2022-08-22T03:31:38.497Z,19.97
2022-08-22T03:32:52.464Z,19.81
2022-08-22T03:35:51.769Z,19.89
2022-08-22T03:38:45.657Z,19.93
2022-08-22T03:40:01.754Z,19.75
2022-08-22T03:41:24.461Z,19.79
2022-08-22T03:42:57.027Z,19.81
2022-08-22T03:44:35.173Z,19.89
2022-08-22T03:47:58.846Z,20.38
2022-08-22T03:51:16.336Z,20.56
2022-08-22T03:53:06.655Z,20.66
2022-08-22T03:56:08.277Z,21.22
2022-08-22T03:59:18.124Z,21.49
2022-08-22T04:02:53.986Z,21.93
2022-08-22T04:04:13.799Z,22.00
2022-08-22T04:05:45.401Z,22.23
2022-08-22T04:08:57.257Z,22.43
2022-08-22T04:12:10.230Z,23.04
2022-08-22T04:15:14.649Z,23.26
2022-08-22T04:18:39.041Z,23.60
2022-08-22T04:20:16.742Z,23.41
2022-08-22T04:23:04.865Z,23.72
2022-08-22T04:25:55.971Z,23.62
2022-08-22T04:30:09.928Z,23.44
2022-08-22T04:34:12.917Z,23.43
2022-08-22T04:37:00.237Z,23.44
2022-08-22T04:41:19.369Z,23.41
2022-08-22T04:44:06.486Z,23.50
2022-08-22T04:46:53.655Z,23.54
2022-08-22T04:49:50.187Z,23.51
2022-08-22T05:02:16.684Z,23.07
2022-08-22T05:03:29.288Z,22.90
2022-08-22T05:06:05.993Z,22.83
2022-08-22T05:10:52.360Z,23.30
2022-08-22T05:13:35.668Z,23.61
2022-08-22T05:16:08.061Z,23.49
2022-08-22T05:20:12.897Z,23.14
2022-08-22T05:22:44.760Z,23.15
2022-08-22T05:25:33.265Z,23.10
2022-08-22T05:36:36.753Z,23.09
2022-08-22T05:39:18.803Z,22.95
2022-08-22T05:41:49.870Z,23.14
2022-08-22T05:45:39.558Z,23.17
2022-08-22T05:48:43.646Z,23.30
2022-08-22T05:51:21.654Z,23.60
2022-08-22T05:54:33.733Z,23.87
2022-08-22T05:57:41.103Z,23.93
2022-08-22T06:00:12.743Z,24.07
2022-08-22T06:04:51.366Z,24.35
2022-08-22T06:07:28.452Z,24.47
2022-08-22T06:11:45.328Z,24.60
2022-08-22T06:14:49.277Z,24.80
2022-08-22T06:17:39.315Z,25.03
2022-08-22T06:21:45.915Z,25.47
2022-08-22T06:24:27.123Z,25.75
2022-08-22T06:26:57.753Z,25.78
2022-08-22T06:29:46.832Z,25.60
2022-08-22T06:36:33.075Z,25.83
2022-08-22T06:39:07.459Z,26.01
2022-08-22T06:42:01.055Z,26.18
2022-08-22T06:44:38.862Z,26.30
2022-08-22T06:45:50.649Z,26.23
2022-08-22T06:48:25.476Z,26.61
2022-08-22T06:50:56.453Z,26.53
2022-08-22T06:53:34.881Z,26.65
2022-08-22T06:56:15.777Z,26.37
2022-08-22T06:58:52.471Z,26.17
2022-08-22T07:01:35.818Z,26.10
2022-08-22T07:04:31.774Z,26.27
2022-08-22T07:07:01.743Z,26.27
2022-08-22T07:09:36.976Z,26.21
2022-08-22T07:21:48.056Z,26.71
2022-08-22T07:24:31.392Z,26.87
2022-08-22T07:29:27.937Z,26.99
2022-08-22T07:32:27.809Z,26.95
2022-08-22T07:35:15.461Z,26.83
2022-08-22T07:38:08.333Z,26.85
2022-08-22T07:42:28.531Z,26.74
2022-08-22T07:45:13.405Z,26.58
2022-08-22T07:48:26.213Z,26.57
2022-08-22T07:51:11.997Z,26.66
2022-08-22T07:54:08.899Z,26.66
2022-08-22T08:00:53.809Z,26.63
2022-08-22T08:03:32.824Z,26.63
2022-08-22T08:04:43.819Z,26.57
2022-08-22T08:07:14.194Z,26.59
2022-08-22T08:09:59.107Z,26.51
2022-08-22T08:14:02.957Z,26.39
2022-08-22T08:16:46.093Z,26.43
2022-08-22T08:19:30.499Z,26.46
2022-08-22T08:21:57.262Z,26.64
2022-08-22T08:24:39.903Z,26.63
2022-08-22T08:28:59.491Z,26.64
2022-08-22T08:31:44.757Z,26.61
2022-08-22T08:32:59.609Z,26.51
2022-08-22T08:36:01.882Z,26.59
2022-08-22T08:36:55.458Z,26.52
2022-08-22T08:39:38.113Z,26.59
2022-08-22T08:43:02.810Z,26.15
2022-08-22T08:46:15.710Z,26.18
2022-08-22T08:49:15.657Z,26.15
2022-08-22T08:54:05.837Z,26.12
2022-08-22T08:57:05.669Z,26.24
2022-08-22T08:59:44.435Z,26.19
2022-08-22T09:04:26.059Z,26.32
2022-08-22T09:07:24.540Z,26.23
2022-08-22T09:10:34.097Z,26.38
2022-08-22T09:14:04.389Z,26.39
2022-08-22T09:17:02.425Z,26.35
2022-08-22T09:20:21.101Z,26.42
2022-08-22T09:38:05.644Z,26.62
2022-08-22T09:40:42.702Z,26.57
2022-08-22T09:45:23.351Z,26.66
2022-08-22T09:48:15.102Z,26.76
2022-08-22T09:51:31.975Z,26.69
2022-08-22T09:54:18.800Z,26.80
2022-08-22T10:06:58.501Z,26.80
2022-08-22T10:10:06.491Z,26.62
2022-08-22T10:12:54.024Z,26.80
2022-08-22T10:17:12.727Z,26.90
2022-08-22T10:20:17.962Z,27.00
2022-08-22T10:23:21.540Z,27.19
2022-08-22T10:26:26.813Z,27.26
2022-08-22T10:30:33.806Z,27.42
2022-08-22T10:33:15.763Z,27.22
2022-08-22T10:36:15.818Z,27.44
2022-08-22T10:38:53.418Z,27.53
2022-08-22T10:43:11.127Z,27.62
2022-08-22T10:46:12.666Z,27.62
2022-08-22T10:50:29.016Z,27.67
2022-08-22T10:55:05.717Z,27.81
2022-08-22T11:06:03.456Z,27.98
2022-08-22T11:09:00.827Z,28.01
2022-08-22T11:11:49.715Z,27.90
2022-08-22T11:16:41.834Z,27.98
2022-08-22T11:19:45.953Z,28.11
2022-08-22T11:22:35.465Z,28.03
2022-08-22T11:25:52.384Z,28.13
2022-08-22T11:28:40.826Z,28.27
2022-08-22T11:31:31.842Z,28.17
2022-08-22T11:33:18.922Z,28.04
2022-08-22T11:35:56.899Z,28.08
2022-08-22T11:39:07.896Z,28.06
2022-08-22T11:41:55.235Z,28.03
2022-08-22T11:44:58.858Z,28.18
2022-08-22T11:47:50.671Z,28.17
2022-08-22T11:56:41.916Z,28.46
2022-08-22T11:59:39.999Z,28.19
2022-08-22T12:02:51.251Z,28.28
2022-08-22T12:04:10.485Z,28.17
2022-08-22T12:06:51.195Z,28.31
2022-08-22T12:08:28.336Z,28.22
2022-08-22T12:11:40.271Z,28.33
2022-08-22T12:14:46.936Z,28.32
2022-08-22T12:17:55.043Z,28.35
2022-08-22T12:20:29.065Z,28.27
2022-08-22T12:23:43.511Z,28.19
2022-08-22T12:27:55.108Z,28.38
2022-08-22T12:32:58.060Z,28.27
2022-08-22T12:35:52.504Z,28.22
2022-08-22T12:39:14.272Z,28.37
2022-08-22T12:42:18.148Z,28.52
2022-08-22T12:45:18.230Z,28.56
2022-08-22T12:50:16.115Z,28.60
2022-08-22T12:52:58.919Z,28.58
2022-08-22T12:55:59.963Z,28.44
2022-08-22T12:59:24.192Z,28.47
2022-08-22T13:02:18.298Z,28.54
2022-08-22T13:06:38.138Z,28.51
2022-08-22T13:13:56.130Z,28.30
2022-08-22T13:18:08.690Z,28.21
2022-08-22T13:20:38.256Z,28.21
2022-08-22T13:24:52.749Z,28.30
2022-08-22T13:31:41.587Z,28.13
2022-08-22T13:34:13.520Z,28.19
2022-08-22T13:36:52.022Z,28.21
2022-08-22T13:39:29.087Z,28.21
2022-08-22T13:43:40.779Z,28.24
2022-08-22T13:46:10.963Z,28.17
2022-08-22T13:49:00.733Z,28.12
2022-08-22T13:51:46.723Z,28.09
2022-08-22T13:54:40.023Z,28.12
2022-08-22T13:58:51.276Z,28.19
2022-08-22T14:01:55.211Z,28.26
2022-08-22T14:03:09.625Z,28.22
2022-08-22T14:05:49.384Z,28.23
2022-08-22T14:08:29.911Z,28.28
2022-08-22T14:11:12.356Z,28.27
2022-08-22T14:14:13.358Z,28.04
2022-08-22T14:16:51.703Z,28.15
2022-08-22T14:19:53.109Z,28.05
2022-08-22T14:22:14.556Z,27.90
2022-08-22T14:29:18.854Z,28.09
2022-08-22T14:32:26.669Z,28.12
2022-08-22T14:36:44.079Z,28.05
2022-08-22T14:39:21.099Z,27.88
2022-08-22T14:41:58.633Z,27.85
2022-08-22T14:46:28.356Z,27.80
2022-08-22T14:49:25.365Z,27.86
2022-08-22T14:52:10.391Z,27.65
2022-08-22T14:54:42.740Z,27.65
2022-08-22T14:57:52.962Z,27.69
2022-08-22T15:02:09.196Z,27.60
2022-08-22T15:04:47.034Z,27.62
2022-08-22T15:08:47.729Z,27.65
2022-08-22T15:11:42.544Z,27.58
2022-08-22T15:14:24.291Z,27.64
2022-08-22T15:18:32.947Z,27.56
2022-08-22T15:19:45.813Z,27.51
2022-08-22T15:22:45.508Z,27.55
2022-08-22T15:25:24.658Z,27.55
2022-08-22T15:27:57.518Z,27.44
2022-08-22T15:32:02.646Z,27.46
2022-08-22T15:34:49.169Z,27.33
2022-08-22T15:37:33.800Z,27.22
2022-08-22T15:40:15.707Z,27.27
2022-08-22T15:42:51.202Z,27.29
2022-08-22T15:45:43.300Z,27.22
2022-08-22T15:48:33.592Z,27.29
2022-08-22T15:53:12.957Z,27.21
2022-08-22T15:56:05.651Z,27.14
2022-08-22T16:06:50.930Z,26.97
2022-08-22T16:09:38.153Z,27.02
2022-08-22T16:12:42.671Z,27.02
2022-08-22T16:18:49.571Z,26.90
2022-08-22T16:21:29.855Z,26.88
2022-08-22T16:24:37.214Z,26.75
2022-08-22T16:28:58.213Z,26.79
2022-08-22T16:31:33.318Z,26.82
2022-08-22T16:36:06.494Z,26.68
2022-08-22T16:38:57.091Z,26.74
2022-08-22T16:43:19.419Z,26.66
2022-08-22T16:45:49.659Z,26.62
2022-08-22T16:49:59.074Z,26.60
2022-08-22T16:52:52.562Z,26.52
2022-08-22T16:55:35.559Z,26.45
2022-08-22T17:00:05.242Z,26.39
2022-08-22T17:01:21.295Z,26.28
2022-08-22T17:04:01.485Z,26.28
2022-08-22T17:06:46.139Z,26.22
2022-08-22T17:09:47.242Z,26.20
2022-08-22T17:12:48.347Z,26.15
2022-08-22T17:17:07.777Z,26.15
2022-08-22T17:26:40.765Z,26.07
2022-08-22T17:29:54.453Z,25.99
2022-08-22T17:31:17.121Z,25.90
2022-08-22T17:34:28.835Z,25.94
2022-08-22T17:42:40.844Z,25.99
2022-08-22T17:44:16.143Z,25.88
2022-08-22T17:46:54.636Z,25.88
2022-08-22T17:49:45.219Z,25.80
2022-08-22T17:52:40.224Z,25.77
2022-08-22T17:55:33.915Z,25.82
2022-08-22T18:02:39.702Z,25.91
2022-08-22T18:05:20.563Z,25.95
2022-08-22T18:08:06.275Z,25.84
2022-08-22T18:24:49.490Z,25.71
2022-08-22T18:29:15.494Z,25.57
2022-08-22T18:32:07.621Z,25.55
2022-08-22T18:34:58.250Z,25.57
2022-08-22T18:38:36.748Z,25.47
2022-08-22T18:41:36.456Z,25.39
2022-08-22T18:44:29.948Z,25.31
2022-08-22T18:49:13.619Z,25.30
2022-08-22T18:51:41.320Z,25.27
2022-08-22T18:55:43.493Z,25.42
2022-08-22T18:59:05.388Z,25.34
2022-08-22T19:02:12.746Z,25.39
2022-08-22T19:05:23.705Z,25.33
2022-08-22T19:13:00.465Z,25.21
2022-08-22T19:16:10.875Z,25.11
2022-08-22T19:23:41.346Z,24.71
2022-08-22T19:26:37.343Z,24.69
2022-08-22T19:30:43.964Z,24.59
2022-08-22T19:37:30.879Z,24.65
2022-08-22T19:42:05.305Z,24.57
2022-08-22T19:45:09.043Z,24.59
2022-08-22T19:49:30.755Z,24.59
2022-08-22T19:52:12.286Z,24.61
2022-08-22T19:55:25.572Z,24.59
2022-08-22T19:58:32.574Z,24.59
2022-08-22T20:01:34.384Z,24.42
2022-08-22T20:04:30.127Z,24.37
2022-08-22T20:07:46.653Z,24.42
2022-08-22T20:10:38.687Z,24.46
2022-08-22T20:13:26.786Z,24.53
2022-08-22T20:17:42.923Z,24.46
2022-08-22T20:20:35.666Z,24.41
2022-08-22T20:23:19.909Z,24.32
2022-08-22T20:26:15.215Z,24.16
2022-08-22T20:30:26.843Z,24.07
2022-08-22T20:37:40.206Z,24.02
2022-08-22T20:41:44.469Z,23.86
2022-08-22T20:44:34.327Z,23.75
2022-08-22T20:48:43.023Z,23.62
2022-08-22T20:51:19.869Z,23.63
2022-08-22T20:53:53.011Z,23.78
2022-08-22T20:58:40.398Z,23.84
2022-08-22T21:01:11.900Z,23.83
2022-08-22T21:03:57.762Z,23.81
2022-08-22T21:08:06.391Z,23.76
2022-08-22T21:11:20.002Z,23.87
2022-08-22T21:13:46.216Z,23.88
2022-08-22T21:17:50.151Z,23.97
2022-08-22T21:21:36.260Z,23.89
2022-08-22T21:24:05.911Z,23.84
2022-08-22T21:26:38.557Z,23.78
2022-08-22T21:30:35.495Z,23.53
2022-08-22T21:33:03.082Z,23.65
2022-08-22T21:35:56.130Z,23.60
2022-08-22T21:40:03.839Z,23.61
2022-08-22T21:42:39.330Z,23.54
2022-08-22T21:46:50.283Z,23.77
2022-08-22T21:48:02.563Z,23.70
2022-08-22T21:50:41.812Z,23.80
2022-08-22T21:53:14.209Z,23.90
2022-08-22T21:57:34.975Z,23.97
2022-08-22T22:00:01.816Z,23.92
2022-08-22T22:04:18.900Z,23.81
2022-08-22T22:06:43.899Z,23.82
2022-08-22T22:10:37.024Z,23.76
2022-08-22T22:13:02.455Z,23.73
2022-08-22T22:17:02.283Z,23.55
2022-08-22T22:19:29.163Z,23.53
2022-08-22T22:20:40.574Z,23.43
2022-08-22T22:23:05.322Z,23.56
2022-08-22T22:25:39.597Z,23.43
2022-08-22T22:27:59.791Z,23.42
2022-08-22T22:30:27.343Z,23.38
2022-08-22T22:34:40.050Z,23.38
2022-08-22T22:37:09.014Z,23.36
2022-08-22T22:39:39.093Z,23.27
2022-08-22T22:42:05.655Z,23.36
2022-08-22T22:45:57.016Z,23.38
2022-08-22T22:48:24.087Z,23.35
2022-08-22T22:52:26.103Z,23.29
2022-08-22T22:53:42.732Z,23.12
2022-08-22T22:56:09.638Z,23.24
2022-08-22T22:57:20.422Z,23.13
2022-08-22T22:58:33.685Z,23.06
2022-08-22T23:05:16.443Z,23.17
2022-08-22T23:07:44.271Z,23.10
2022-08-22T23:10:11.215Z,23.11
2022-08-22T23:12:38.098Z,23.14
2022-08-22T23:15:07.184Z,23.10
2022-08-22T23:19:02.459Z,23.06
2022-08-22T23:21:31.851Z,22.97
2022-08-22T23:24:14.173Z,22.81
2022-08-22T23:26:40.008Z,22.92
2022-08-22T23:29:05.223Z,22.92
2022-08-22T23:31:33.491Z,22.99
2022-08-22T23:35:31.554Z,23.03
2022-08-22T23:37:58.455Z,23.00
